Time;durP1;ratioP1;P1;durP2;ratioP2;P2;SDS_P1;SDS_P2;PMS_P1;PMS_P2;Temp;Humidity;BMP_temperature;BMP_pressure;BME280_temperature;BME280_humidity;BME280_pressure;Samples;Min_cycle;Max_cycle;Signal;HPM_P1;HPM_P2
2023/07/12 00:00:20;;;;;;;5.55;3.13;;;;;;;;;;6124954;23;20101;-76
2023/07/12 00:02:47;;;;;;;7.43;2.90;;;;;;;;;;6124712;23;20018;-76
2023/07/12 00:05:14;;;;;;;7.15;2.97;;;;;;;;;;6124225;23;20486;-76
2023/07/12 00:07:40;;;;;;;6.80;2.88;;;;;;;;;;6124606;23;20108;-76
2023/07/12 00:10:15;;;;;;;6.38;3.45;;;;;;;;;;6125141;23;20033;-75
2023/07/12 00:12:42;;;;;;;6.25;3.22;;;;;;;;;;6125873;23;20026;-76
2023/07/12 00:15:12;;;;;;;6.40;2.90;;;;;;;;;;6126258;23;20029;-75
2023/07/12 00:17:39;;;;;;;6.82;2.80;;;;;;;;;;6126649;23;20047;-76
2023/07/12 00:20:17;;;;;;;5.13;2.95;;;;;;;;;;6126914;23;20022;-77
2023/07/12 00:22:44;;;;;;;7.07;2.75;;;;;;;;;;6125908;23;20077;-75
2023/07/12 00:25:11;;;;;;;5.53;2.60;;;;;;;;;;6125754;23;20080;-77
2023/07/12 00:27:39;;;;;;;4.35;2.75;;;;;;;;;;6125844;23;20093;-76
2023/07/12 00:30:15;;;;;;;6.75;3.05;;;;;;;;;;6126188;23;20093;-77
2023/07/12 00:32:42;;;;;;;6.75;3.15;;;;;;;;;;6126627;23;20060;-76
2023/07/12 00:35:15;;;;;;;6.07;3.03;;;;;;;;;;6125710;23;20514;-76
2023/07/12 00:37:41;;;;;;;8.38;3.30;;;;;;;;;;6126633;23;20030;-76
2023/07/12 00:40:20;;;;;;;5.18;3.08;;;;;;;;;;6127852;23;20021;-76
2023/07/12 00:42:55;;;;;;;7.70;3.60;;;;;;;;;;6127348;23;20024;-78
2023/07/12 00:45:23;;;;;;;5.15;3.10;;;;;;;;;;6126526;23;20134;-76
2023/07/12 00:47:50;;;;;;;5.78;2.90;;;;;;;;;;6126298;23;20089;-77
2023/07/12 00:50:18;;;;;;;4.97;2.90;;;;;;;;;;6126527;23;20045;-76
2023/07/12 00:52:46;;;;;;;6.55;3.45;;;;;;;;;;6126414;23;20033;-76
2023/07/12 00:55:54;;;;;;;6.22;3.20;;;;;;;;;;6125784;23;20048;-76
2023/07/12 00:58:22;;;;;;;6.25;3.13;;;;;;;;;;6126404;23;20538;-76
2023/07/12 01:00:50;;;;;;;6.43;2.67;;;;;;;;;;6125906;23;20061;-76
2023/07/12 01:03:18;;;;;;;6.97;2.80;;;;;;;;;;6125778;23;20471;-76
2023/07/12 01:05:46;;;;;;;5.75;3.22;;;;;;;;;;6125604;23;20022;-76
2023/07/12 01:08:14;;;;;;;6.78;3.22;;;;;;;;;;6126254;23;20357;-77
2023/07/12 01:10:41;;;;;;;6.53;2.58;;;;;;;;;;6126061;23;20045;-78
2023/07/12 01:13:09;;;;;;;5.43;2.95;;;;;;;;;;6125742;23;20061;-77
2023/07/12 01:15:38;;;;;;;5.07;2.63;;;;;;;;;;6126025;23;20056;-77
2023/07/12 01:18:07;;;;;;;5.88;2.83;;;;;;;;;;6126262;23;20060;-77
2023/07/12 01:20:36;;;;;;;6.37;2.60;;;;;;;;;;6126484;23;20022;-77
2023/07/12 01:23:05;;;;;;;5.05;2.78;;;;;;;;;;6126393;23;20022;-77
2023/07/12 01:25:36;;;;;;;5.28;2.75;;;;;;;;;;6126213;23;20029;-77
2023/07/12 01:28:03;;;;;;;7.30;2.72;;;;;;;;;;6126137;23;20021;-77
2023/07/12 01:30:30;;;;;;;5.20;2.65;;;;;;;;;;6126570;23;20096;-77
2023/07/12 01:32:56;;;;;;;5.63;2.70;;;;;;;;;;6126546;23;20032;-76
2023/07/12 01:35:23;;;;;;;7.15;3.88;;;;;;;;;;6127073;23;20025;-76
2023/07/12 01:37:50;;;;;;;6.10;3.50;;;;;;;;;;6126690;23;20025;-76
2023/07/12 01:40:18;;;;;;;5.75;4.05;;;;;;;;;;6127562;23;20069;-77
2023/07/12 01:42:44;;;;;;;6.90;3.88;;;;;;;;;;6126840;23;20053;-76
2023/07/12 01:45:11;;;;;;;7.90;3.83;;;;;;;;;;6126039;23;20061;-75
2023/07/12 01:47:38;;;;;;;5.82;3.88;;;;;;;;;;6126615;23;20022;-75
2023/07/12 01:50:06;;;;;;;5.88;4.47;;;;;;;;;;6126283;23;20018;-76
2023/07/12 01:52:32;;;;;;;6.68;3.67;;;;;;;;;;6130662;23;20424;-75
2023/07/12 01:54:59;;;;;;;6.13;3.58;;;;;;;;;;6131313;23;20516;-76
2023/07/12 01:57:27;;;;;;;5.35;3.15;;;;;;;;;;6127787;23;20093;-76
2023/07/12 01:59:53;;;;;;;5.82;3.67;;;;;;;;;;6125520;23;20100;-76
2023/07/12 02:02:20;;;;;;;5.47;3.30;;;;;;;;;;6126055;23;20022;-76
2023/07/12 02:04:47;;;;;;;5.20;2.53;;;;;;;;;;6125260;23;20072;-76
2023/07/12 02:07:14;;;;;;;5.18;2.80;;;;;;;;;;6125493;23;20053;-76
2023/07/12 02:09:42;;;;;;;5.13;2.60;;;;;;;;;;6125773;23;20022;-76
2023/07/12 02:12:09;;;;;;;4.97;2.88;;;;;;;;;;6125649;23;20018;-75
2023/07/12 02:14:37;;;;;;;4.88;2.50;;;;;;;;;;6124949;23;20080;-75
2023/07/12 02:17:04;;;;;;;6.43;2.88;;;;;;;;;;6125361;23;20021;-75
2023/07/12 02:19:31;;;;;;;6.57;2.95;;;;;;;;;;6125540;23;20021;-76
2023/07/12 02:21:58;;;;;;;9.25;3.67;;;;;;;;;;6125512;23;20029;-76
2023/07/12 02:24:24;;;;;;;4.65;2.67;;;;;;;;;;6124597;23;20402;-77
2023/07/12 02:26:51;;;;;;;6.22;2.78;;;;;;;;;;6125319;23;20022;-76
2023/07/12 02:29:18;;;;;;;5.85;3.13;;;;;;;;;;6125244;23;20482;-77
2023/07/12 02:31:46;;;;;;;6.35;2.80;;;;;;;;;;6124981;23;20490;-77
2023/07/12 02:34:12;;;;;;;4.85;2.60;;;;;;;;;;6124170;23;20471;-76
2023/07/12 02:36:39;;;;;;;4.90;2.80;;;;;;;;;;6124721;23;20073;-77
2023/07/12 02:39:06;;;;;;;4.30;2.45;;;;;;;;;;6125145;23;20054;-77
2023/07/12 02:41:32;;;;;;;7.53;2.65;;;;;;;;;;6125460;23;20072;-77
2023/07/12 02:43:59;;;;;;;5.68;2.50;;;;;;;;;;6124279;23;20368;-77
2023/07/12 02:46:26;;;;;;;4.85;2.45;;;;;;;;;;6124788;23;20416;-76
2023/07/12 02:48:54;;;;;;;6.03;2.60;;;;;;;;;;6124499;23;20387;-77
2023/07/12 02:51:21;;;;;;;4.88;2.55;;;;;;;;;;6124855;23;20353;-77
2023/07/12 02:53:47;;;;;;;5.05;2.30;;;;;;;;;;6124398;23;20021;-77
2023/07/12 02:56:14;;;;;;;6.57;2.67;;;;;;;;;;6125275;23;20064;-76
2023/07/12 02:58:41;;;;;;;6.63;2.92;;;;;;;;;;6125029;23;20409;-76
2023/07/12 03:01:07;;;;;;;4.13;2.70;;;;;;;;;;6125293;23;20045;-76
2023/07/12 03:03:34;;;;;;;5.57;2.72;;;;;;;;;;6124158;23;20029;-76
2023/07/12 03:06:09;;;;;;;5.85;3.08;;;;;;;;;;6124879;23;20483;-76
2023/07/12 03:08:36;;;;;;;6.50;2.80;;;;;;;;;;6148713;23;20021;-60
2023/07/12 03:11:04;;;;;;;4.75;2.83;;;;;;;;;;6212183;23;20025;-57
2023/07/12 03:13:31;;;;;;;5.38;2.50;;;;;;;;;;6214498;23;20134;-54
2023/07/12 03:15:58;;;;;;;4.93;2.40;;;;;;;;;;6213921;23;20027;-58
2023/07/12 03:18:25;;;;;;;4.63;2.80;;;;;;;;;;6214377;23;20055;-56
2023/07/12 03:20:52;;;;;;;4.80;2.55;;;;;;;;;;6214134;23;20025;-59
2023/07/12 03:23:20;;;;;;;6.45;3.40;;;;;;;;;;6214299;23;20031;-56
2023/07/12 03:25:48;;;;;;;6.18;3.20;;;;;;;;;;6213799;23;20025;-57
2023/07/12 03:28:15;;;;;;;8.50;3.05;;;;;;;;;;6214254;23;20045;-59
2023/07/12 03:30:41;;;;;;;6.80;3.30;;;;;;;;;;6213945;23;20542;-55
2023/07/12 03:33:08;;;;;;;5.47;2.70;;;;;;;;;;6213916;23;20024;-61
2023/07/12 03:35:35;;;;;;;6.32;3.00;;;;;;;;;;6213792;23;20024;-59
2023/07/12 03:38:02;;;;;;;5.55;3.13;;;;;;;;;;6214650;23;20392;-56
2023/07/12 03:40:30;;;;;;;6.80;3.38;;;;;;;;;;6214178;23;20036;-56
2023/07/12 03:42:57;;;;;;;6.60;3.47;;;;;;;;;;6213998;23;20356;-55
2023/07/12 03:45:24;;;;;;;7.35;3.30;;;;;;;;;;6214024;23;20020;-57
2023/07/12 03:48:07;;;;;;;5.07;3.65;;;;;;;;;;6213504;23;20522;-58
2023/07/12 03:50:33;;;;;;;7.25;3.33;;;;;;;;;;6211555;23;20016;-59
2023/07/12 03:56:23;;;;;;;5.20;3.33;;;;;;;;;;6211448;23;20016;-57
2023/07/12 03:58:50;;;;;;;5.47;3.58;;;;;;;;;;6213564;23;20399;-54
2023/07/12 04:01:18;;;;;;;8.02;4.07;;;;;;;;;;6213715;23;20478;-55
2023/07/12 04:03:45;;;;;;;6.53;3.72;;;;;;;;;;6213641;23;20128;-55
2023/07/12 04:06:44;;;;;;;7.47;3.97;;;;;;;;;;6213620;23;20020;-56
2023/07/12 04:09:11;;;;;;;6.70;3.83;;;;;;;;;;6211322;23;20036;-58
2023/07/12 04:11:41;;;;;;;6.60;3.83;;;;;;;;;;6213934;23;20028;-55
2023/07/12 04:14:08;;;;;;;5.88;4.10;;;;;;;;;;6213285;23;20025;-56
2023/07/12 04:16:34;;;;;;;6.60;3.97;;;;;;;;;;6213941;23;20079;-56
2023/07/12 04:19:01;;;;;;;6.20;3.70;;;;;;;;;;6214157;23;20028;-58
2023/07/12 04:21:28;;;;;;;7.50;4.07;;;;;;;;;;6214131;23;20021;-61
2023/07/12 04:23:55;;;;;;;5.78;3.80;;;;;;;;;;6213386;23;20067;-57
2023/07/12 04:26:22;;;;;;;6.00;3.85;;;;;;;;;;6213865;23;20020;-57
2023/07/12 04:28:52;;;;;;;10.10;4.38;;;;;;;;;;6213742;23;20016;-57
2023/07/12 04:31:20;;;;;;;;;;;;;;;;;;6214479;23;20021;-56
2023/07/12 04:33:48;;;;;;;6.80;3.83;;;;;;;;;;6213019;23;19920;-56
2023/07/12 04:36:17;;;;;;;8.50;4.40;;;;;;;;;;6213436;23;20071;-57
2023/07/12 04:38:44;;;;;;;6.87;4.13;;;;;;;;;;6213814;23;20021;-56
2023/07/12 04:41:10;;;;;;;7.95;3.92;;;;;;;;;;6214038;23;20040;-53
2023/07/12 04:43:37;;;;;;;8.40;4.15;;;;;;;;;;6213111;23;20021;-54
2023/07/12 04:46:06;;;;;;;6.05;4.03;;;;;;;;;;6213696;23;20024;-53
2023/07/12 04:48:34;;;;;;;6.05;3.80;;;;;;;;;;6214368;23;20095;-55
2023/07/12 04:51:03;;;;;;;6.97;4.13;;;;;;;;;;6214187;23;20025;-54
2023/07/12 04:53:30;;;;;;;6.13;4.43;;;;;;;;;;6213648;23;20035;-57
2023/07/12 04:55:57;;;;;;;6.25;4.55;;;;;;;;;;6213499;23;20026;-53
2023/07/12 04:58:24;;;;;;;6.13;4.20;;;;;;;;;;6214841;23;20016;-56
2023/07/12 05:00:51;;;;;;;6.05;3.67;;;;;;;;;;6216227;23;20032;-57
2023/07/12 05:03:19;;;;;;;6.70;3.90;;;;;;;;;;6215903;23;20321;-56
2023/07/12 05:05:46;;;;;;;6.72;4.05;;;;;;;;;;6215569;23;20024;-59
2023/07/12 05:08:13;;;;;;;6.68;4.32;;;;;;;;;;6216423;23;20032;-55
2023/07/12 05:10:40;;;;;;;6.20;3.85;;;;;;;;;;6216085;23;20061;-60
2023/07/12 05:13:08;;;;;;;6.80;4.43;;;;;;;;;;6215466;23;20467;-57
2023/07/12 05:15:34;;;;;;;5.97;3.75;;;;;;;;;;6216214;23;20017;-55
2023/07/12 05:18:01;;;;;;;6.75;3.92;;;;;;;;;;6215752;23;20025;-58
2023/07/12 05:20:29;;;;;;;6.30;3.80;;;;;;;;;;6216046;23;20020;-58
2023/07/12 05:22:56;;;;;;;8.23;4.30;;;;;;;;;;6215496;23;20020;-58
2023/07/12 05:25:23;;;;;;;7.13;4.22;;;;;;;;;;6215586;23;20031;-58
2023/07/12 05:27:50;;;;;;;7.38;4.05;;;;;;;;;;6215460;23;20066;-58
2023/07/12 05:30:17;;;;;;;6.32;3.83;;;;;;;;;;6215851;23;20534;-57
2023/07/12 05:32:44;;;;;;;6.82;3.60;;;;;;;;;;6215648;23;20084;-57
2023/07/12 05:35:11;;;;;;;6.32;4.45;;;;;;;;;;6215148;23;20384;-58
2023/07/12 05:37:40;;;;;;;5.55;3.95;;;;;;;;;;6215535;23;20052;-58
2023/07/12 05:40:09;;;;;;;6.53;4.05;;;;;;;;;;6215614;23;20020;-58
2023/07/12 05:42:40;;;;;;;8.15;3.80;;;;;;;;;;6216987;23;20033;-57
2023/07/12 05:45:07;;;;;;;5.60;3.90;;;;;;;;;;6215338;23;20476;-57
2023/07/12 05:47:34;;;;;;;8.75;5.68;;;;;;;;;;6215725;23;20044;-58
2023/07/12 05:50:02;;;;;;;9.20;5.78;;;;;;;;;;6215608;23;20020;-59
2023/07/12 05:52:28;;;;;;;7.20;4.70;;;;;;;;;;6216403;23;20100;-58
2023/07/12 05:54:57;;;;;;;7.50;5.60;;;;;;;;;;6215303;23;20020;-58
2023/07/12 05:57:24;;;;;;;8.23;5.25;;;;;;;;;;6214944;23;20017;-57
2023/07/12 05:59:51;;;;;;;7.93;5.15;;;;;;;;;;6215714;23;20080;-57
2023/07/12 06:02:18;;;;;;;8.38;5.07;;;;;;;;;;6215633;23;20095;-58
2023/07/12 06:04:45;;;;;;;7.35;4.55;;;;;;;;;;6215039;23;20047;-56
2023/07/12 06:07:11;;;;;;;7.75;3.95;;;;;;;;;;6215231;23;20020;-57
2023/07/12 06:09:38;;;;;;;11.18;3.78;;;;;;;;;;6215408;23;20468;-58
2023/07/12 06:12:08;;;;;;;5.68;3.45;;;;;;;;;;6215034;23;20471;-56
2023/07/12 06:14:34;;;;;;;6.10;3.60;;;;;;;;;;6214475;23;20083;-56
2023/07/12 06:17:01;;;;;;;6.20;3.50;;;;;;;;;;6214766;23;20239;-57
2023/07/12 06:19:28;;;;;;;6.93;3.65;;;;;;;;;;6214559;23;20521;-59
2023/07/12 06:21:55;;;;;;;6.78;3.55;;;;;;;;;;6214728;23;20020;-59
2023/07/12 06:24:22;;;;;;;6.28;3.72;;;;;;;;;;6214128;23;20306;-59
2023/07/12 06:26:49;;;;;;;6.88;3.53;;;;;;;;;;6214628;23;20021;-58
2023/07/12 06:29:17;;;;;;;9.27;3.58;;;;;;;;;;6214694;23;20028;-58
2023/07/12 06:31:44;;;;;;;6.20;3.50;;;;;;;;;;6214540;23;20031;-58
2023/07/12 06:34:11;;;;;;;7.68;3.80;;;;;;;;;;6214465;23;20044;-59
2023/07/12 06:36:38;;;;;;;7.25;3.65;;;;;;;;;;6214669;23;20021;-59
2023/07/12 06:39:05;;;;;;;6.00;3.70;;;;;;;;;;6214576;23;20032;-58
2023/07/12 06:41:32;;;;;;;5.68;3.70;;;;;;;;;;6214576;23;20119;-59
2023/07/12 06:43:59;;;;;;;6.70;3.83;;;;;;;;;;6214649;23;20024;-58
2023/07/12 06:46:27;;;;;;;6.13;3.72;;;;;;;;;;6214393;23;20063;-59
2023/07/12 06:48:54;;;;;;;6.15;4.03;;;;;;;;;;6214539;23;20471;-57
2023/07/12 06:51:21;;;;;;;10.20;3.97;;;;;;;;;;6214514;23;20087;-58
2023/07/12 06:53:48;;;;;;;6.40;3.47;;;;;;;;;;6214361;23;20145;-57
2023/07/12 06:56:15;;;;;;;6.05;3.30;;;;;;;;;;6214536;23;20517;-58
2023/07/12 06:58:42;;;;;;;9.10;3.83;;;;;;;;;;6214351;23;20055;-59
2023/07/12 07:01:09;;;;;;;6.38;3.30;;;;;;;;;;6214435;23;20028;-59
2023/07/12 07:03:38;;;;;;;5.32;2.95;;;;;;;;;;6214267;23;20024;-59
2023/07/12 07:06:05;;;;;;;6.93;3.13;;;;;;;;;;6214052;23;20056;-56
2023/07/12 07:08:32;;;;;;;6.28;2.92;;;;;;;;;;6214083;23;20020;-59
2023/07/12 07:11:00;;;;;;;5.07;3.00;;;;;;;;;;6214082;23;20396;-59
2023/07/12 07:13:27;;;;;;;4.80;2.60;;;;;;;;;;6213461;23;20031;-59
2023/07/12 07:15:54;;;;;;;7.05;2.47;;;;;;;;;;6212790;23;20020;-58
2023/07/12 07:18:21;;;;;;;4.90;2.13;;;;;;;;;;6214292;23;20414;-60
2023/07/12 07:20:49;;;;;;;5.10;2.25;;;;;;;;;;6213839;23;20399;-60
2023/07/12 07:23:16;;;;;;;5.93;1.98;;;;;;;;;;6213986;23;20079;-59
2023/07/12 07:25:43;;;;;;;4.50;2.25;;;;;;;;;;6214129;23;20025;-58
2023/07/12 07:28:09;;;;;;;3.67;2.20;;;;;;;;;;6214551;23;20021;-62
2023/07/12 07:30:37;;;;;;;4.88;1.92;;;;;;;;;;6214299;23;20020;-58
2023/07/12 07:33:04;;;;;;;4.50;1.90;;;;;;;;;;6214038;23;20055;-58
2023/07/12 07:35:31;;;;;;;5.30;2.25;;;;;;;;;;6214211;23;20032;-62
2023/07/12 07:37:59;;;;;;;4.07;2.10;;;;;;;;;;6213981;23;20099;-58
2023/07/12 07:40:26;;;;;;;4.70;1.67;;;;;;;;;;6213914;23;20024;-57
2023/07/12 07:42:58;;;;;;;5.80;1.90;;;;;;;;;;6212375;23;20103;-58
2023/07/12 07:45:25;;;;;;;7.22;2.20;;;;;;;;;;6214126;23;20021;-59
2023/07/12 07:47:52;;;;;;;4.40;2.65;;;;;;;;;;6214331;23;20103;-58
2023/07/12 07:50:20;;;;;;;3.83;1.90;;;;;;;;;;6214865;23;20024;-58
2023/07/12 07:52:47;;;;;;;3.85;1.70;;;;;;;;;;6215493;23;20021;-59
2023/07/12 07:55:15;;;;;;;3.90;1.70;;;;;;;;;;6214242;23;20403;-59
2023/07/12 07:57:42;;;;;;;4.82;1.90;;;;;;;;;;6214999;23;20021;-60
2023/07/12 08:00:13;;;;;;;4.88;1.50;;;;;;;;;;6210231;23;20533;-57
2023/07/12 08:02:40;;;;;;;3.95;1.60;;;;;;;;;;6209536;23;20029;-59
2023/07/12 08:05:07;;;;;;;4.53;1.80;;;;;;;;;;6210983;23;20024;-60
2023/07/12 08:07:39;;;;;;;3.25;1.67;;;;;;;;;;6211204;23;20048;-58
2023/07/12 08:10:07;;;;;;;5.25;1.98;;;;;;;;;;6210532;23;20031;-63
2023/07/12 08:12:36;;;;;;;3.25;1.60;;;;;;;;;;6210141;23;20024;-60
2023/07/12 08:15:03;;;;;;;4.40;1.92;;;;;;;;;;6210426;23;20031;-67
2023/07/12 08:17:30;;;;;;;6.97;2.00;;;;;;;;;;6211023;23;20086;-67
2023/07/12 08:19:57;;;;;;;3.50;1.75;;;;;;;;;;6211119;23;20025;-63
2023/07/12 08:22:25;;;;;;;4.93;1.80;;;;;;;;;;6211850;23;20028;-64
2023/07/12 08:24:52;;;;;;;3.83;1.48;;;;;;;;;;6210542;23;20056;-60
2023/07/12 08:27:18;;;;;;;3.67;1.83;;;;;;;;;;6210856;23;20025;-61
2023/07/12 08:29:47;;;;;;;4.22;1.90;;;;;;;;;;6209862;23;20020;-59
2023/07/12 08:32:13;;;;;;;4.47;2.00;;;;;;;;;;6210774;23;20021;-59
2023/07/12 08:34:40;;;;;;;4.93;1.83;;;;;;;;;;6212678;23;20024;-57
2023/07/12 08:37:07;;;;;;;5.43;2.10;;;;;;;;;;6213267;23;20074;-58
2023/07/12 08:39:34;;;;;;;4.25;1.60;;;;;;;;;;6213362;23;20082;-58
2023/07/12 08:42:01;;;;;;;5.00;2.00;;;;;;;;;;6213328;23;20029;-59
2023/07/12 08:44:31;;;;;;;3.80;1.70;;;;;;;;;;6212665;23;20487;-59
2023/07/12 08:47:00;;;;;;;3.75;1.80;;;;;;;;;;6213318;23;20078;-59
2023/07/12 08:49:29;;;;;;;3.80;1.70;;;;;;;;;;6212627;23;20020;-60
2023/07/12 08:52:01;;;;;;;4.20;1.70;;;;;;;;;;6212982;23;20074;-60
2023/07/12 08:54:44;;;;;;;4.60;1.77;;;;;;;;;;6211695;23;20078;-60
2023/07/12 08:57:17;;;;;;;3.45;1.90;;;;;;;;;;6210921;23;20398;-58
2023/07/12 08:59:48;;;;;;;4.97;3.15;;;;;;;;;;6212676;23;20029;-57
2023/07/12 09:02:23;;;;;;;2.63;1.60;;;;;;;;;;6213016;23;20108;-60
2023/07/12 09:04:49;;;;;;;2.55;1.50;;;;;;;;;;6212810;23;20655;-60
2023/07/12 09:07:24;;;;;;;3.67;1.83;;;;;;;;;;6212521;23;20422;-60
2023/07/12 09:09:51;;;;;;;4.03;1.80;;;;;;;;;;6212803;23;20048;-60
2023/07/12 09:12:28;;;;;;;3.70;1.80;;;;;;;;;;6212552;23;20062;-59
2023/07/12 09:14:58;;;;;;;3.63;1.60;;;;;;;;;;6211918;23;20048;-59
2023/07/12 09:17:27;;;;;;;;;;;;;;;;;;6209052;23;20079;-77
2023/07/12 09:19:54;;;;;;;4.15;2.20;;;;;;;;;;6214669;23;19990;-77
2023/07/12 09:22:22;;;;;;;6.20;2.10;;;;;;;;;;6215735;23;20084;-77
2023/07/12 09:24:53;;;;;;;3.83;2.03;;;;;;;;;;6215786;23;20048;-77
2023/07/12 09:27:24;;;;;;;4.50;2.10;;;;;;;;;;6215546;23;20017;-77
2023/07/12 09:29:59;;;;;;;6.20;2.28;;;;;;;;;;6215237;23;20016;-75
2023/07/12 09:32:31;;;;;;;4.00;2.13;;;;;;;;;;6213112;23;20017;-78
2023/07/12 09:34:58;;;;;;;4.07;2.20;;;;;;;;;;6213676;23;20044;-77
2023/07/12 09:37:25;;;;;;;4.63;2.10;;;;;;;;;;6214581;23;20104;-77
2023/07/12 09:39:54;;;;;;;4.55;1.83;;;;;;;;;;6216542;23;20404;-77
2023/07/12 09:42:21;;;;;;;3.47;1.70;;;;;;;;;;6216169;23;20028;-78
2023/07/12 09:44:49;;;;;;;5.45;2.53;;;;;;;;;;6214508;23;20092;-77
2023/07/12 09:47:35;;;;;;;6.47;2.58;;;;;;;;;;6213293;23;20017;-76
2023/07/12 09:50:07;;;;;;;4.57;2.10;;;;;;;;;;6213174;23;20024;-78
2023/07/12 09:52:46;;;;;;;5.20;2.10;;;;;;;;;;6213050;23;20702;-79
2023/07/12 09:55:20;;;;;;;4.75;2.20;;;;;;;;;;6215589;23;20763;-76
2023/07/12 09:57:57;;;;;;;3.92;1.90;;;;;;;;;;6213222;23;20504;-76
2023/07/12 10:00:30;;;;;;;5.53;2.30;;;;;;;;;;6215159;23;20405;-78
2023/07/12 10:03:10;;;;;;;6.30;2.38;;;;;;;;;;6215565;23;20016;-80
2023/07/12 10:05:38;;;;;;;5.13;2.20;;;;;;;;;;6218133;23;20071;-78
2023/07/12 10:08:09;;;;;;;5.95;2.40;;;;;;;;;;6214846;23;20627;-77
2023/07/12 10:10:43;;;;;;;5.05;2.50;;;;;;;;;;6215355;23;20024;-76
2023/07/12 10:13:23;;;;;;;7.38;2.80;;;;;;;;;;6217408;23;20048;-77
2023/07/12 10:15:51;;;;;;;3.92;2.10;;;;;;;;;;6214342;23;20017;-76
2023/07/12 10:18:22;;;;;;;3.50;2.08;;;;;;;;;;6213496;23;20073;-76
2023/07/12 10:20:50;;;;;;;4.38;2.10;;;;;;;;;;6184429;23;20349;-77
2023/07/12 10:23:19;;;;;;;4.35;2.10;;;;;;;;;;6183517;23;20028;-77
2023/07/12 10:25:53;;;;;;;3.78;2.40;;;;;;;;;;6185840;23;20124;-78
2023/07/12 10:28:24;;;;;;;5.65;2.55;;;;;;;;;;6184556;23;20045;-77
2023/07/12 10:30:52;;;;;;;3.55;2.40;;;;;;;;;;6183729;23;20028;-76
2023/07/12 10:33:25;;;;;;;3.90;2.40;;;;;;;;;;6183292;23;20528;-76
2023/07/12 10:35:55;;;;;;;4.53;2.50;;;;;;;;;;6184581;23;20056;-77
2023/07/12 10:38:22;;;;;;;5.10;2.22;;;;;;;;;;6187032;23;20039;-79
2023/07/12 10:40:54;;;;;;;4.65;2.55;;;;;;;;;;6187825;23;20045;-77
2023/07/12 10:43:27;;;;;;;5.72;2.70;;;;;;;;;;6184245;23;20806;-77
2023/07/12 10:45:59;;;;;;;4.32;2.70;;;;;;;;;;6183479;23;20017;-76
2023/07/12 10:48:29;;;;;;;7.28;2.70;;;;;;;;;;6183370;23;20027;-77
2023/07/12 10:50:57;;;;;;;;;;;;;;;;;;6182890;23;20021;-76
2023/07/12 10:53:26;;;;;;;4.90;2.67;;;;;;;;;;6182551;23;19923;-76
2023/07/12 10:56:18;;;;;;;7.13;2.75;;;;;;;;;;6183219;23;20056;-77
2023/07/12 10:58:50;;;;;;;6.00;2.88;;;;;;;;;;6182435;23;20075;-77
2023/07/12 11:01:40;;;;;;;5.20;2.50;;;;;;;;;;6181102;23;20029;-76
2023/07/12 11:04:10;;;;;;;4.65;2.40;;;;;;;;;;6181500;23;20031;-76
2023/07/12 11:06:55;;;;;;;5.57;2.75;;;;;;;;;;6181924;23;20064;-76
2023/07/12 11:09:22;;;;;;;4.53;2.50;;;;;;;;;;6181729;23;20181;-75
2023/07/12 11:11:51;;;;;;;6.15;3.10;;;;;;;;;;6181936;23;20100;-75
2023/07/12 11:14:46;;;;;;;4.65;2.60;;;;;;;;;;6183980;23;20017;-78
2023/07/12 11:17:16;;;;;;;4.43;2.58;;;;;;;;;;6171327;23;20043;-74
2023/07/12 11:19:51;;;;;;;4.88;2.70;;;;;;;;;;6183532;23;20021;-74
2023/07/12 11:22:19;;;;;;;7.05;2.92;;;;;;;;;;6184654;23;20021;-75
2023/07/12 11:24:53;;;;;;;7.85;3.47;;;;;;;;;;6181387;23;20021;-76
2023/07/12 11:27:37;;;;;;;5.72;2.92;;;;;;;;;;6182147;23;20025;-76
2023/07/12 11:30:20;;;;;;;5.15;2.90;;;;;;;;;;6181767;23;20021;-76
2023/07/12 11:32:48;;;;;;;6.55;3.40;;;;;;;;;;6183547;23;20059;-77
2023/07/12 11:35:20;;;;;;;6.22;3.30;;;;;;;;;;6184751;23;20040;-80
2023/07/12 11:37:49;;;;;;;5.78;3.38;;;;;;;;;;6182957;23;20116;-78
2023/07/12 11:40:21;;;;;;;7.10;3.50;;;;;;;;;;6182261;23;20063;-73
2023/07/12 11:42:48;;;;;;;5.68;3.40;;;;;;;;;;6194800;23;20036;-75
2023/07/12 11:45:17;;;;;;;6.90;3.47;;;;;;;;;;6184281;23;20017;-76
2023/07/12 11:47:46;;;;;;;6.80;3.67;;;;;;;;;;6180698;23;20335;-75
2023/07/12 11:50:21;;;;;;;7.22;3.90;;;;;;;;;;6181541;23;20049;-75
2023/07/12 11:52:48;;;;;;;6.75;3.88;;;;;;;;;;6180320;23;20164;-75
2023/07/12 11:55:17;;;;;;;7.00;3.65;;;;;;;;;;6180618;23;20052;-75
2023/07/12 11:57:45;;;;;;;8.82;4.65;;;;;;;;;;6181439;23;20032;-77
2023/07/12 12:00:17;;;;;;;6.90;3.55;;;;;;;;;;6181951;23;20100;-78
2023/07/12 12:02:49;;;;;;;7.45;4.03;;;;;;;;;;6182680;23;20434;-77
2023/07/12 12:05:20;;;;;;;7.78;4.18;;;;;;;;;;6180902;23;20101;-77
2023/07/12 12:07:49;;;;;;;7.55;4.22;;;;;;;;;;6181613;23;20025;-75
2023/07/12 12:10:22;;;;;;;9.20;4.40;;;;;;;;;;6181473;23;20099;-75
2023/07/12 12:12:49;;;;;;;8.25;4.70;;;;;;;;;;6181132;23;20028;-75
2023/07/12 12:15:19;;;;;;;7.38;4.38;;;;;;;;;;6181283;23;20017;-75
2023/07/12 12:17:46;;;;;;;6.68;4.95;;;;;;;;;;6180987;23;20485;-74
2023/07/12 12:20:15;;;;;;;7.50;4.60;;;;;;;;;;6184756;23;20024;-78
2023/07/12 12:22:43;;;;;;;8.07;4.03;;;;;;;;;;6182963;23;20209;-75
2023/07/12 12:25:19;;;;;;;8.38;4.95;;;;;;;;;;6181935;23;20024;-74
2023/07/12 12:27:48;;;;;;;6.28;4.63;;;;;;;;;;6181738;23;20476;-77
2023/07/12 12:30:20;;;;;;;7.88;4.45;;;;;;;;;;6181456;23;20021;-75
2023/07/12 12:32:59;;;;;;;7.65;4.60;;;;;;;;;;6180907;23;20063;-77
2023/07/12 12:35:26;;;;;;;7.80;4.60;;;;;;;;;;6180756;23;20017;-76
2023/07/12 12:37:57;;;;;;;6.90;4.63;;;;;;;;;;6180686;23;20274;-76
2023/07/12 12:40:26;;;;;;;7.07;4.90;;;;;;;;;;6181270;23;20013;-76
2023/07/12 12:42:59;;;;;;;6.85;4.75;;;;;;;;;;6181534;23;20423;-76
2023/07/12 12:45:29;;;;;;;6.65;4.70;;;;;;;;;;6181506;23;20072;-77
2023/07/12 12:47:56;;;;;;;7.88;4.78;;;;;;;;;;6180723;23;20027;-76
2023/07/12 12:50:23;;;;;;;7.30;4.72;;;;;;;;;;6180300;23;20044;-74
2023/07/12 12:52:50;;;;;;;7.75;5.32;;;;;;;;;;6180261;23;20104;-75
2023/07/12 12:55:17;;;;;;;7.60;5.60;;;;;;;;;;6179446;23;20051;-73
2023/07/12 12:57:45;;;;;;;8.15;5.65;;;;;;;;;;6180370;23;20060;-75
2023/07/12 13:00:19;;;;;;;8.45;5.28;;;;;;;;;;6180789;23;20017;-75
2023/07/12 13:02:46;;;;;;;9.25;5.63;;;;;;;;;;6180411;23;20393;-77
2023/07/12 13:05:14;;;;;;;10.60;5.90;;;;;;;;;;6180410;23;20028;-75
2023/07/12 13:07:42;;;;;;;7.75;5.30;;;;;;;;;;6179635;23;20032;-74
2023/07/12 13:10:15;;;;;;;8.70;5.60;;;;;;;;;;6180819;23;20025;-74
2023/07/12 13:12:42;;;;;;;10.68;5.88;;;;;;;;;;6180503;23;20028;-74
2023/07/12 13:15:14;;;;;;;9.13;5.78;;;;;;;;;;6180193;23;20100;-74
2023/07/12 13:17:42;;;;;;;8.52;5.30;;;;;;;;;;6182286;23;20028;-73
2023/07/12 13:20:11;;;;;;;10.05;6.13;;;;;;;;;;6181110;23;20095;-75
2023/07/12 13:22:38;;;;;;;;;;;;;;;;;;6182752;23;20099;-74
2023/07/12 13:25:05;;;;;;;12.95;6.03;;;;;;;;;;6182416;23;19920;-75
2023/07/12 13:27:34;;;;;;;8.27;5.38;;;;;;;;;;6182754;23;20028;-75
2023/07/12 13:30:02;;;;;;;8.27;5.57;;;;;;;;;;6182727;23;20711;-74
2023/07/12 13:32:30;;;;;;;10.13;6.20;;;;;;;;;;6182176;23;20017;-75
2023/07/12 13:34:57;;;;;;;8.77;6.18;;;;;;;;;;6182900;23;20020;-74
2023/07/12 13:37:25;;;;;;;7.72;5.85;;;;;;;;;;6182353;23;20493;-76
2023/07/12 13:39:52;;;;;;;6.90;4.40;;;;;;;;;;6182500;23;20092;-75
2023/07/12 13:42:19;;;;;;;5.78;3.60;;;;;;;;;;6182985;23;20075;-77
2023/07/12 13:44:46;;;;;;;8.23;3.67;;;;;;;;;;6182956;23;20088;-79
2023/07/12 13:47:15;;;;;;;5.75;2.92;;;;;;;;;;6183521;23;20092;-75
2023/07/12 13:49:44;;;;;;;9.30;3.03;;;;;;;;;;6182713;23;20057;-75
2023/07/12 13:52:13;;;;;;;5.57;3.17;;;;;;;;;;6183110;23;20023;-76
2023/07/12 13:54:39;;;;;;;5.18;2.47;;;;;;;;;;6181947;23;20024;-75
2023/07/12 13:57:09;;;;;;;5.22;2.20;;;;;;;;;;6186160;23;20100;-79
2023/07/12 13:59:36;;;;;;;5.82;2.53;;;;;;;;;;6185147;23;20025;-79
2023/07/12 14:02:16;;;;;;;3.53;2.00;;;;;;;;;;6183156;23;20024;-75
2023/07/12 14:04:43;;;;;;;3.83;2.00;;;;;;;;;;6182578;23;20076;-75
2023/07/12 14:07:11;;;;;;;3.85;2.00;;;;;;;;;;6182259;23;20151;-75
2023/07/12 14:09:38;;;;;;;5.47;2.38;;;;;;;;;;6182588;23;20071;-78
2023/07/12 14:12:06;;;;;;;8.13;2.50;;;;;;;;;;6183266;23;20025;-75
2023/07/12 14:14:32;;;;;;;5.15;2.28;;;;;;;;;;6183306;23;20029;-75
2023/07/12 14:16:59;;;;;;;8.90;3.03;;;;;;;;;;6183363;23;20017;-75
2023/07/12 14:19:26;;;;;;;7.20;2.65;;;;;;;;;;6184317;23;20062;-76
2023/07/12 14:21:55;;;;;;;6.60;2.95;;;;;;;;;;6185587;23;20028;-77
2023/07/12 14:24:21;;;;;;;6.32;2.55;;;;;;;;;;6183793;23;20031;-75
2023/07/12 14:26:48;;;;;;;4.70;2.30;;;;;;;;;;6182810;23;20577;-75
2023/07/12 14:29:14;;;;;;;6.68;2.83;;;;;;;;;;6183543;23;20025;-76
2023/07/12 14:31:42;;;;;;;4.80;2.90;;;;;;;;;;6183297;23;20024;-75
2023/07/12 14:34:10;;;;;;;4.60;2.85;;;;;;;;;;6182819;23;20013;-76
2023/07/12 14:36:37;;;;;;;4.95;2.90;;;;;;;;;;6183093;23;20021;-76
2023/07/12 14:39:05;;;;;;;4.50;2.67;;;;;;;;;;6184460;23;20357;-78
2023/07/12 14:41:34;;;;;;;6.90;3.13;;;;;;;;;;6184218;23;20476;-76
2023/07/12 14:44:11;;;;;;;4.68;2.00;;;;;;;;;;6182696;23;20028;-75
2023/07/12 14:46:38;;;;;;;4.28;2.17;;;;;;;;;;6182230;23;20045;-75
2023/07/12 14:49:05;;;;;;;4.13;2.20;;;;;;;;;;6182825;23;20021;-76
2023/07/12 14:51:31;;;;;;;4.38;1.90;;;;;;;;;;6182855;23;20473;-74
2023/07/12 14:53:58;;;;;;;3.60;1.75;;;;;;;;;;6181445;23;20017;-75
2023/07/12 14:56:26;;;;;;;3.13;1.80;;;;;;;;;;6182441;23;20025;-75